createdAt,value
2018-12-08T00:02:24.669Z,7.20
2018-12-08T00:04:52.871Z,7.10
2018-12-08T00:07:21.077Z,7.20
2018-12-08T00:09:49.476Z,7.20
2018-12-08T00:12:17.764Z,7.20
2018-12-08T00:14:45.968Z,7.20
2018-12-08T00:17:14.160Z,7.20
2018-12-08T00:19:42.369Z,7.10
2018-12-08T00:22:10.556Z,7.00
2018-12-08T00:24:38.765Z,7.00
2018-12-08T00:27:07.049Z,6.90
2018-12-08T00:29:35.273Z,7.00
2018-12-08T00:32:03.738Z,6.90
2018-12-08T00:34:31.935Z,6.90
2018-12-08T00:37:00.148Z,7.00
2018-12-08T00:39:28.364Z,7.00
2018-12-08T00:41:56.648Z,7.00
2018-12-08T00:44:24.873Z,7.00
2018-12-08T00:46:53.149Z,6.90
2018-12-08T00:49:21.356Z,6.90
2018-12-08T00:51:49.557Z,6.90
2018-12-08T00:54:17.776Z,6.90
2018-12-08T00:56:45.990Z,6.80
2018-12-08T00:59:14.325Z,6.90
2018-12-08T01:01:42.600Z,6.90
2018-12-08T01:04:10.804Z,6.90
2018-12-08T01:06:39.007Z,6.90
2018-12-08T01:09:08.618Z,6.90
2018-12-08T01:11:36.884Z,6.90
2018-12-08T01:14:05.166Z,6.90
2018-12-08T01:16:33.347Z,6.90
2018-12-08T01:19:01.527Z,6.90
2018-12-08T01:21:29.774Z,6.90
2018-12-08T01:23:57.989Z,6.90
2018-12-08T01:26:26.260Z,6.90
2018-12-08T01:28:54.549Z,6.80
2018-12-08T01:31:22.772Z,6.80
2018-12-08T01:33:50.965Z,6.80
2018-12-08T01:36:19.292Z,6.80
2018-12-08T01:38:47.481Z,6.80
2018-12-08T01:41:15.780Z,6.80
2018-12-08T01:43:43.959Z,6.80
2018-12-08T01:46:12.167Z,6.80
2018-12-08T01:48:40.365Z,6.70
2018-12-08T01:51:08.581Z,6.70
2018-12-08T01:53:36.774Z,6.80
2018-12-08T01:56:05.069Z,6.80
2018-12-08T01:58:33.276Z,6.90
2018-12-08T02:01:08.322Z,6.80
2018-12-08T02:03:36.512Z,6.80
2018-12-08T02:06:04.715Z,6.80
2018-12-08T02:08:32.920Z,6.70
2018-12-08T02:11:01.151Z,6.70
2018-12-08T02:13:29.380Z,6.80
2018-12-08T02:15:57.605Z,6.80
2018-12-08T02:18:25.824Z,6.70
2018-12-08T02:20:54.031Z,6.80
2018-12-08T02:23:22.256Z,6.80
2018-12-08T02:25:50.481Z,6.80
2018-12-08T02:28:18.771Z,7.00
2018-12-08T02:30:46.991Z,6.90
2018-12-08T02:33:15.226Z,6.90
2018-12-08T02:35:43.453Z,6.90
2018-12-08T02:38:11.860Z,6.90
2018-12-08T02:40:40.079Z,6.90
2018-12-08T02:43:08.339Z,6.90
2018-12-08T02:45:36.591Z,6.90
2018-12-08T02:48:04.809Z,7.00
2018-12-08T02:50:33.115Z,7.00
2018-12-08T02:53:01.319Z,6.90
2018-12-08T02:55:29.640Z,6.90
2018-12-08T02:57:57.947Z,6.90
2018-12-08T03:00:26.259Z,6.90
2018-12-08T03:02:54.464Z,7.00
2018-12-08T03:05:22.873Z,7.00
2018-12-08T03:07:51.095Z,7.00
2018-12-08T03:10:19.323Z,7.10
2018-12-08T03:12:47.534Z,7.10
2018-12-08T03:15:15.767Z,7.00
2018-12-08T03:17:43.984Z,7.00
2018-12-08T03:20:12.326Z,7.00
2018-12-08T03:22:40.532Z,7.00
2018-12-08T03:25:08.852Z,7.00
2018-12-08T03:27:37.201Z,7.10
2018-12-08T03:30:05.625Z,7.10
2018-12-08T03:32:34.598Z,7.10
2018-12-08T03:35:02.891Z,7.10
2018-12-08T03:37:31.082Z,7.00
2018-12-08T03:39:59.310Z,7.10
2018-12-08T03:42:28.076Z,7.10
2018-12-08T03:44:56.359Z,7.10
2018-12-08T03:47:24.572Z,7.10
2018-12-08T03:49:52.795Z,7.00
2018-12-08T03:52:20.976Z,7.10
2018-12-08T03:54:49.180Z,7.10
2018-12-08T03:57:17.373Z,7.10
2018-12-08T03:59:45.571Z,7.20
2018-12-08T04:02:13.859Z,7.20
2018-12-08T04:04:42.060Z,7.20
2018-12-08T04:07:10.334Z,7.20
2018-12-08T04:09:38.549Z,7.20
2018-12-08T04:12:06.743Z,7.10
2018-12-08T04:14:35.017Z,7.10
2018-12-08T04:17:03.225Z,7.00
2018-12-08T04:19:31.420Z,7.10
2018-12-08T04:21:59.631Z,7.20
2018-12-08T04:24:27.831Z,7.20
2018-12-08T04:26:56.045Z,7.00
2018-12-08T04:29:24.262Z,7.00
2018-12-08T04:31:52.493Z,7.00
2018-12-08T04:34:20.712Z,6.90
2018-12-08T04:36:48.946Z,6.90
2018-12-08T04:39:17.153Z,6.90
2018-12-08T04:41:45.372Z,6.90
2018-12-08T04:44:13.697Z,6.90
2018-12-08T04:46:42.023Z,6.90
2018-12-08T04:49:10.240Z,6.80
2018-12-08T04:51:38.468Z,6.70
2018-12-08T04:54:06.687Z,6.80
2018-12-08T04:56:34.944Z,6.90
2018-12-08T04:59:03.313Z,6.80
2018-12-08T05:01:31.539Z,6.80
2018-12-08T05:03:59.752Z,6.90
2018-12-08T05:06:28.084Z,6.80
2018-12-08T05:08:56.300Z,6.80
2018-12-08T05:11:24.627Z,6.90
2018-12-08T05:13:52.926Z,6.80
2018-12-08T05:16:21.148Z,6.90
2018-12-08T05:18:49.446Z,6.90
2018-12-08T05:21:17.677Z,6.90
2018-12-08T05:23:45.893Z,6.90
2018-12-08T05:26:14.126Z,6.90
2018-12-08T05:28:42.340Z,6.90
2018-12-08T05:31:10.573Z,6.90
2018-12-08T05:33:38.782Z,7.00
2018-12-08T05:36:06.999Z,7.00
2018-12-08T05:38:35.231Z,7.10
2018-12-08T05:41:03.547Z,7.00
2018-12-08T05:43:31.763Z,7.00
2018-12-08T05:45:59.991Z,6.90
2018-12-08T05:48:28.230Z,6.90
2018-12-08T05:50:56.481Z,7.00
2018-12-08T05:53:24.799Z,7.10
2018-12-08T05:55:53.120Z,7.00
2018-12-08T05:58:21.340Z,7.00
2018-12-08T06:00:49.556Z,7.00
2018-12-08T06:03:17.769Z,7.00
2018-12-08T06:05:46.000Z,7.00
2018-12-08T06:08:14.208Z,7.00
2018-12-08T06:10:42.461Z,7.00
2018-12-08T06:13:10.667Z,7.10
2018-12-08T06:15:38.893Z,7.00
2018-12-08T06:18:07.195Z,6.90
2018-12-08T06:20:35.415Z,6.90
2018-12-08T06:23:03.749Z,7.00
2018-12-08T06:25:34.790Z,6.90
2018-12-08T06:28:16.183Z,7.00
2018-12-08T06:30:44.552Z,6.90
2018-12-08T06:33:12.759Z,6.90
2018-12-08T06:35:40.976Z,6.80
2018-12-08T06:38:09.351Z,6.90
2018-12-08T06:40:37.635Z,6.90
2018-12-08T06:43:05.872Z,6.90
2018-12-08T06:45:34.215Z,6.80
2018-12-08T06:48:02.495Z,6.70
2018-12-08T06:50:30.688Z,6.70
2018-12-08T06:53:00.888Z,6.70
2018-12-08T06:55:29.101Z,6.80
2018-12-08T06:57:57.383Z,6.70
2018-12-08T07:00:25.675Z,6.70
2018-12-08T07:02:53.880Z,6.60
2018-12-08T07:05:22.096Z,6.70
2018-12-08T07:07:50.384Z,6.70
2018-12-08T07:10:18.582Z,6.80
2018-12-08T07:12:46.789Z,6.70
2018-12-08T07:15:15.065Z,6.70
2018-12-08T07:17:43.271Z,6.70
2018-12-08T07:20:11.474Z,6.80
2018-12-08T07:22:39.671Z,6.80
2018-12-08T07:25:08.036Z,6.80
2018-12-08T07:27:36.241Z,6.90
2018-12-08T07:30:06.324Z,6.80
2018-12-08T07:32:38.795Z,6.90
2018-12-08T07:35:05.216Z,6.90
2018-12-08T07:37:33.446Z,7.00
2018-12-08T07:40:01.730Z,7.10
2018-12-08T07:42:30.053Z,7.10
2018-12-08T07:44:58.242Z,7.20
2018-12-08T07:47:26.450Z,7.20
2018-12-08T07:49:54.652Z,7.20
2018-12-08T07:52:22.947Z,7.20
2018-12-08T07:54:51.145Z,7.20
2018-12-08T07:57:19.375Z,7.20
2018-12-08T07:59:47.604Z,7.20
2018-12-08T08:02:15.807Z,7.20
2018-12-08T08:04:43.999Z,7.20
2018-12-08T08:07:12.228Z,7.30
2018-12-08T08:09:40.460Z,7.30
2018-12-08T08:12:08.666Z,7.30
2018-12-08T08:14:37.163Z,7.30
2018-12-08T08:17:05.377Z,7.30
2018-12-08T08:19:33.665Z,7.20
2018-12-08T08:22:01.878Z,7.30
2018-12-08T08:24:30.077Z,7.20
2018-12-08T08:26:58.276Z,7.30
2018-12-08T08:29:26.492Z,7.30
2018-12-08T08:31:55.058Z,7.30
2018-12-08T08:34:23.248Z,7.40
2018-12-08T08:36:51.545Z,7.30
2018-12-08T08:39:19.757Z,7.40
2018-12-08T08:41:47.951Z,7.40
2018-12-08T08:44:16.199Z,7.50
2018-12-08T08:46:44.400Z,7.60
2018-12-08T08:49:12.636Z,7.50
2018-12-08T08:51:40.848Z,7.60
2018-12-08T08:54:09.061Z,7.60
2018-12-08T08:56:37.288Z,7.60
2018-12-08T08:59:05.517Z,7.60
2018-12-08T09:01:33.726Z,7.70
2018-12-08T09:04:01.972Z,7.70
2018-12-08T09:06:30.181Z,7.80
2018-12-08T09:08:58.414Z,7.80
2018-12-08T09:11:26.611Z,7.90
2018-12-08T09:13:54.794Z,7.90
2018-12-08T09:16:23.011Z,7.90
2018-12-08T09:18:51.257Z,7.90
2018-12-08T09:21:19.453Z,7.90
2018-12-08T09:23:47.739Z,8.00
2018-12-08T09:26:16.328Z,8.00
2018-12-08T09:28:44.540Z,7.90
2018-12-08T09:31:12.760Z,8.00
2018-12-08T09:33:41.092Z,8.00
2018-12-08T09:36:09.320Z,8.10
2018-12-08T09:38:37.627Z,8.20
2018-12-08T09:41:06.028Z,8.20
2018-12-08T09:43:34.260Z,8.10
2018-12-08T09:46:02.585Z,8.10
2018-12-08T09:48:30.807Z,8.00
2018-12-08T09:50:59.120Z,7.90
2018-12-08T09:53:27.415Z,7.90
2018-12-08T09:55:55.642Z,8.00
2018-12-08T09:58:23.868Z,8.00
2018-12-08T10:00:52.084Z,8.00
2018-12-08T10:03:20.321Z,8.00
2018-12-08T10:05:48.531Z,8.10
2018-12-08T10:08:16.759Z,8.00
2018-12-08T10:10:44.973Z,8.00
2018-12-08T10:13:13.203Z,8.00
2018-12-08T10:15:41.421Z,8.00
2018-12-08T10:18:09.639Z,8.00
2018-12-08T10:20:37.872Z,8.00
2018-12-08T10:23:06.181Z,8.00
2018-12-08T10:25:34.423Z,8.00
2018-12-08T10:28:02.760Z,8.00
2018-12-08T10:30:30.988Z,8.00
2018-12-08T10:32:59.200Z,8.00
2018-12-08T10:35:27.515Z,8.00
2018-12-08T10:37:55.724Z,8.00
2018-12-08T10:40:24.009Z,8.00
2018-12-08T10:42:52.211Z,8.00
2018-12-08T10:45:20.499Z,8.00
2018-12-08T10:47:48.708Z,8.00
2018-12-08T10:50:16.919Z,8.00
2018-12-08T10:52:45.127Z,8.00
2018-12-08T10:55:13.418Z,8.00
2018-12-08T10:57:41.620Z,8.00
2018-12-08T11:00:14.270Z,8.00
2018-12-08T11:02:46.779Z,8.00
2018-12-08T11:05:14.987Z,8.00
2018-12-08T11:07:43.220Z,8.00
2018-12-08T11:10:11.445Z,8.00
2018-12-08T11:12:39.672Z,8.10
2018-12-08T11:15:08.054Z,8.10
2018-12-08T11:17:36.252Z,8.10
2018-12-08T11:20:05.320Z,8.10
2018-12-08T11:22:33.617Z,8.20
2018-12-08T11:25:01.912Z,8.20
2018-12-08T11:27:30.141Z,8.30
2018-12-08T11:29:58.440Z,8.30
2018-12-08T11:32:26.839Z,8.40
2018-12-08T11:34:55.083Z,8.40
2018-12-08T11:37:23.305Z,8.30
2018-12-08T11:39:51.603Z,8.40
2018-12-08T11:42:19.808Z,8.30
2018-12-08T11:44:48.331Z,8.40
2018-12-08T11:47:16.671Z,8.40
2018-12-08T11:49:44.881Z,8.50
2018-12-08T11:52:13.199Z,8.60
2018-12-08T11:54:41.468Z,8.60
2018-12-08T11:57:10.377Z,8.60
2018-12-08T11:59:38.907Z,8.70
2018-12-08T12:02:07.303Z,8.60
2018-12-08T12:04:35.609Z,8.70
2018-12-08T12:07:03.811Z,8.70
2018-12-08T12:09:32.061Z,8.60
2018-12-08T12:12:00.339Z,8.60
2018-12-08T12:14:43.256Z,8.60
2018-12-08T12:17:11.673Z,8.60
2018-12-08T12:19:39.949Z,8.60
2018-12-08T12:22:08.255Z,8.50
2018-12-08T12:24:36.518Z,8.50
2018-12-08T12:27:04.746Z,8.60
2018-12-08T12:29:32.982Z,8.50
2018-12-08T12:32:01.184Z,8.40
2018-12-08T12:34:29.480Z,8.50
2018-12-08T12:36:57.842Z,8.50
2018-12-08T12:39:26.050Z,8.50
2018-12-08T12:41:54.335Z,8.50
2018-12-08T12:44:22.636Z,8.50
2018-12-08T12:46:50.912Z,8.40
2018-12-08T12:49:19.227Z,8.50
2018-12-08T12:51:47.422Z,8.50
2018-12-08T12:54:15.615Z,8.50
2018-12-08T12:56:43.859Z,8.50
2018-12-08T12:59:12.060Z,8.60
2018-12-08T13:01:40.254Z,8.60
2018-12-08T13:04:08.459Z,8.60
2018-12-08T13:06:36.652Z,8.60
2018-12-08T13:09:06.731Z,8.60
2018-12-08T13:11:35.081Z,8.60
2018-12-08T13:14:03.545Z,8.50
2018-12-08T13:16:31.754Z,8.50
2018-12-08T13:19:00.070Z,8.50
2018-12-08T13:21:28.367Z,8.50
2018-12-08T13:23:56.586Z,8.50
2018-12-08T13:26:24.902Z,8.40
2018-12-08T13:28:53.169Z,8.40
2018-12-08T13:31:21.388Z,8.40
2018-12-08T13:33:51.779Z,8.40
2018-12-08T13:36:20.072Z,8.50
2018-12-08T13:38:48.260Z,8.50
2018-12-08T13:41:16.463Z,8.40
2018-12-08T13:43:54.831Z,8.40
2018-12-08T13:46:23.087Z,8.40
2018-12-08T13:48:51.279Z,8.40
2018-12-08T13:51:19.648Z,8.40
2018-12-08T13:53:47.835Z,8.40
2018-12-08T13:56:16.039Z,8.40
2018-12-08T13:58:44.241Z,8.30
2018-12-08T14:01:12.532Z,8.30
2018-12-08T14:03:40.714Z,8.30
2018-12-08T14:06:08.948Z,8.30
2018-12-08T14:08:37.184Z,8.20
2018-12-08T14:11:05.471Z,8.30
2018-12-08T14:13:33.672Z,8.20
2018-12-08T14:16:01.891Z,8.20
2018-12-08T14:18:30.080Z,8.20
2018-12-08T14:20:58.481Z,8.20
2018-12-08T14:23:26.681Z,8.20
2018-12-08T14:25:54.940Z,8.20
2018-12-08T14:28:23.223Z,8.30
2018-12-08T14:30:51.407Z,8.20
2018-12-08T14:33:19.610Z,8.30
2018-12-08T14:35:47.913Z,8.30
2018-12-08T14:38:16.235Z,8.30
2018-12-08T14:40:44.440Z,8.30
2018-12-08T14:43:12.639Z,8.30
2018-12-08T14:45:40.856Z,8.40
2018-12-08T14:48:09.050Z,8.30
2018-12-08T14:50:37.261Z,8.30
2018-12-08T14:53:05.503Z,8.40
2018-12-08T14:55:33.703Z,8.40
2018-12-08T14:58:03.772Z,8.30
2018-12-08T15:00:32.231Z,8.30
2018-12-08T15:03:00.616Z,8.30
2018-12-08T15:05:28.983Z,8.30
2018-12-08T15:07:57.186Z,8.30
2018-12-08T15:10:25.421Z,8.30
2018-12-08T15:12:53.636Z,8.30
2018-12-08T15:15:21.919Z,8.30
2018-12-08T15:17:50.140Z,8.30
2018-12-08T15:20:18.415Z,8.30
2018-12-08T15:22:46.725Z,8.40
2018-12-08T15:25:15.020Z,8.30
2018-12-08T15:27:43.226Z,8.30
2018-12-08T15:30:11.520Z,8.30
2018-12-08T15:32:39.838Z,8.30
2018-12-08T15:35:10.019Z,8.40
2018-12-08T15:37:38.817Z,8.40
2018-12-08T15:40:08.621Z,8.40
2018-12-08T15:42:36.911Z,8.40
2018-12-08T15:45:06.508Z,8.40
2018-12-08T15:47:34.898Z,8.40
2018-12-08T15:50:03.206Z,8.50
2018-12-08T15:52:31.409Z,8.50
2018-12-08T15:54:59.603Z,8.50
2018-12-08T15:57:27.825Z,8.40
2018-12-08T15:59:56.185Z,8.40
2018-12-08T16:02:24.393Z,8.60
2018-12-08T16:04:52.583Z,8.50
2018-12-08T16:07:20.918Z,8.60
2018-12-08T16:09:49.729Z,8.60
2018-12-08T16:12:17.940Z,8.60
2018-12-08T16:14:46.133Z,8.60
2018-12-08T16:17:14.423Z,8.60
2018-12-08T16:19:42.709Z,8.50
2018-12-08T16:22:10.916Z,8.50
2018-12-08T16:24:39.193Z,8.50
2018-12-08T16:27:07.500Z,8.70
2018-12-08T16:29:35.711Z,8.70
2018-12-08T16:32:04.045Z,8.60
2018-12-08T16:34:32.312Z,8.60
2018-12-08T16:37:00.525Z,8.50
2018-12-08T16:39:28.725Z,8.70
2018-12-08T16:41:57.268Z,8.70
2018-12-08T16:44:25.502Z,8.60
2018-12-08T16:46:53.754Z,8.60
2018-12-08T16:49:21.947Z,8.60
2018-12-08T16:51:50.136Z,8.60
2018-12-08T16:54:18.332Z,8.60
2018-12-08T16:56:46.643Z,8.70
2018-12-08T16:59:15.015Z,8.80
2018-12-08T17:01:51.276Z,8.80
2018-12-08T17:04:20.455Z,8.80
2018-12-08T17:06:48.823Z,8.90
2018-12-08T17:09:17.124Z,8.80
2018-12-08T17:11:45.395Z,8.80
2018-12-08T17:14:13.676Z,8.80
2018-12-08T17:16:41.962Z,8.80
2018-12-08T17:19:10.436Z,8.90
2018-12-08T17:21:38.739Z,8.90
2018-12-08T17:24:07.028Z,8.90
2018-12-08T17:26:35.215Z,8.80
2018-12-08T17:29:03.533Z,8.80
2018-12-08T17:31:31.779Z,8.90
2018-12-08T17:33:59.977Z,8.80
2018-12-08T17:36:28.192Z,8.80
2018-12-08T17:38:56.529Z,8.80
2018-12-08T17:41:24.725Z,8.80
2018-12-08T17:43:52.929Z,8.90
2018-12-08T17:46:21.212Z,8.90
2018-12-08T17:48:49.488Z,8.90
2018-12-08T17:51:17.696Z,8.90
2018-12-08T17:53:45.984Z,8.80
2018-12-08T17:56:14.184Z,8.80
2018-12-08T17:58:42.417Z,8.60
2018-12-08T18:01:10.696Z,8.60
2018-12-08T18:03:38.976Z,8.60
2018-12-08T18:06:07.205Z,8.60
2018-12-08T18:08:35.421Z,8.60
2018-12-08T18:11:03.848Z,8.50
2018-12-08T18:13:32.077Z,8.50
2018-12-08T18:16:00.290Z,8.50
2018-12-08T18:18:28.567Z,8.50
2018-12-08T18:20:57.028Z,8.50
2018-12-08T18:23:25.480Z,8.60
2018-12-08T18:25:53.696Z,8.60
2018-12-08T18:28:21.909Z,8.70
2018-12-08T18:30:50.297Z,8.70
2018-12-08T18:33:18.611Z,8.70
2018-12-08T18:35:46.855Z,8.80
2018-12-08T18:38:15.065Z,8.80
2018-12-08T18:40:43.454Z,8.80
2018-12-08T18:43:11.663Z,8.70
2018-12-08T18:45:39.876Z,8.80
2018-12-08T18:48:08.181Z,8.90
2018-12-08T18:50:36.405Z,8.90
2018-12-08T18:53:05.444Z,8.90
2018-12-08T18:55:33.709Z,9.00
2018-12-08T18:58:01.928Z,9.00
2018-12-08T19:00:30.244Z,9.00
2018-12-08T19:02:58.549Z,9.00
2018-12-08T19:05:26.874Z,8.90
2018-12-08T19:07:55.171Z,9.00
2018-12-08T19:10:23.477Z,9.00
2018-12-08T19:12:51.680Z,9.00
2018-12-08T19:15:19.908Z,9.10
2018-12-08T19:17:48.119Z,9.10
2018-12-08T19:20:16.475Z,9.10
2018-12-08T19:22:44.679Z,9.10
2018-12-08T19:25:12.991Z,9.20
2018-12-08T19:27:41.313Z,9.30
2018-12-08T19:30:10.350Z,9.30
2018-12-08T19:32:38.616Z,9.30
2018-12-08T19:35:06.907Z,9.30
2018-12-08T19:37:35.104Z,9.40
2018-12-08T19:40:03.617Z,9.50
2018-12-08T19:42:31.833Z,9.50
2018-12-08T19:45:00.042Z,9.50
2018-12-08T19:47:28.238Z,9.50
2018-12-08T19:49:56.440Z,9.50
2018-12-08T19:52:24.631Z,9.50
2018-12-08T19:54:54.556Z,9.60
2018-12-08T19:57:23.061Z,9.50
2018-12-08T19:59:51.316Z,9.40
2018-12-08T20:02:19.532Z,9.50
2018-12-08T20:04:47.751Z,9.50
2018-12-08T20:07:15.960Z,9.50
2018-12-08T20:09:44.155Z,9.50
2018-12-08T20:12:12.368Z,9.50
2018-12-08T20:14:40.574Z,9.50
2018-12-08T20:17:08.818Z,9.50
2018-12-08T20:19:37.095Z,9.50
2018-12-08T20:22:05.315Z,9.50
2018-12-08T20:24:33.519Z,9.50
2018-12-08T20:27:01.735Z,9.60
2018-12-08T20:29:30.061Z,9.50
2018-12-08T20:31:58.414Z,9.50
2018-12-08T20:34:26.852Z,9.60
2018-12-08T20:36:55.055Z,9.60
2018-12-08T20:39:23.347Z,9.60
2018-12-08T20:41:51.736Z,9.50
2018-12-08T20:44:20.029Z,9.60
2018-12-08T20:46:48.231Z,9.60
2018-12-08T20:49:16.417Z,9.70
2018-12-08T20:51:44.717Z,9.70
2018-12-08T20:54:12.994Z,9.70
2018-12-08T20:56:41.188Z,9.70
2018-12-08T20:59:09.372Z,9.70
2018-12-08T21:01:37.579Z,9.80
2018-12-08T21:04:05.852Z,9.80
2018-12-08T21:06:34.136Z,9.70
2018-12-08T21:09:02.393Z,9.70
2018-12-08T21:11:30.594Z,9.70
2018-12-08T21:13:58.780Z,9.60
2018-12-08T21:16:27.091Z,9.70
2018-12-08T21:18:55.374Z,9.70
2018-12-08T21:21:23.782Z,9.70
2018-12-08T21:23:51.973Z,9.80
2018-12-08T21:26:20.384Z,9.70
2018-12-08T21:28:48.709Z,9.70
2018-12-08T21:31:16.945Z,9.70
2018-12-08T21:33:45.173Z,9.70
2018-12-08T21:36:13.421Z,9.80
2018-12-08T21:38:41.623Z,9.90
2018-12-08T21:41:09.848Z,9.80
2018-12-08T21:43:38.059Z,9.80
2018-12-08T21:46:06.291Z,9.90
2018-12-08T21:48:34.571Z,9.70
2018-12-08T21:51:02.826Z,9.80
2018-12-08T21:53:31.024Z,9.80
2018-12-08T21:55:59.938Z,9.90
2018-12-08T21:58:28.356Z,9.90
2018-12-08T22:00:56.595Z,9.80
2018-12-08T22:03:24.841Z,9.90
2018-12-08T22:05:53.066Z,9.90
2018-12-08T22:08:21.270Z,9.90
2018-12-08T22:10:49.587Z,9.90
2018-12-08T22:13:17.799Z,9.90
2018-12-08T22:15:46.117Z,9.90
2018-12-08T22:18:14.339Z,9.90
2018-12-08T22:20:42.583Z,10.00
2018-12-08T22:23:10.809Z,10.00
2018-12-08T22:25:39.024Z,10.00
2018-12-08T22:28:07.262Z,10.10
2018-12-08T22:30:35.456Z,10.00
2018-12-08T22:33:03.884Z,10.00
2018-12-08T22:35:32.147Z,10.20
2018-12-08T22:38:00.367Z,10.20
2018-12-08T22:40:28.644Z,10.20
2018-12-08T22:42:56.849Z,10.30
2018-12-08T22:45:25.220Z,10.30
2018-12-08T22:47:53.424Z,10.40
2018-12-08T22:50:21.648Z,10.40
2018-12-08T22:52:49.845Z,10.50
2018-12-08T22:55:18.033Z,10.50
2018-12-08T22:57:46.240Z,10.50
2018-12-08T23:00:24.482Z,10.50
2018-12-08T23:02:52.679Z,10.50
2018-12-08T23:05:21.105Z,10.50
2018-12-08T23:07:49.310Z,10.50
2018-12-08T23:10:17.579Z,10.40
2018-12-08T23:12:45.925Z,10.50
2018-12-08T23:15:14.228Z,10.50
2018-12-08T23:17:42.439Z,10.40
2018-12-08T23:20:10.804Z,10.50
2018-12-08T23:22:39.005Z,10.40
2018-12-08T23:25:07.389Z,10.40
2018-12-08T23:27:35.682Z,10.50
2018-12-08T23:30:04.475Z,10.50
2018-12-08T23:32:32.968Z,10.60
2018-12-08T23:35:01.269Z,10.60
2018-12-08T23:37:29.487Z,10.60
2018-12-08T23:39:57.755Z,10.60
2018-12-08T23:42:25.988Z,10.60
2018-12-08T23:44:55.010Z,10.60
2018-12-08T23:47:23.313Z,10.50
2018-12-08T23:49:51.591Z,10.50
2018-12-08T23:52:19.800Z,10.60
2018-12-08T23:54:48.130Z,10.60
2018-12-08T23:57:16.376Z,10.50
2018-12-08T23:59:44.681Z,10.50
